createdAt,value
2018-06-06T00:01:53.735Z,18.97
2018-06-06T00:04:22.347Z,18.95
2018-06-06T00:06:50.875Z,18.99
2018-06-06T00:09:19.521Z,19.07
2018-06-06T00:11:48.063Z,18.94
2018-06-06T00:14:16.722Z,18.96
2018-06-06T00:16:45.320Z,18.76
2018-06-06T00:19:14.989Z,18.68
2018-06-06T00:21:43.536Z,18.76
2018-06-06T00:24:12.208Z,18.73
2018-06-06T00:26:40.770Z,18.70
2018-06-06T00:29:09.506Z,18.73
2018-06-06T00:31:39.044Z,18.36
2018-06-06T00:34:07.695Z,18.50
2018-06-06T00:36:36.283Z,18.46
2018-06-06T00:39:08.509Z,18.42
2018-06-06T00:41:37.813Z,18.54
2018-06-06T00:44:06.429Z,18.47
2018-06-06T00:46:35.080Z,18.48
2018-06-06T00:49:03.665Z,18.49
2018-06-06T00:51:32.475Z,18.42
2018-06-06T00:54:01.062Z,18.32
2018-06-06T00:56:29.713Z,18.29
2018-06-06T00:58:58.287Z,18.35
2018-06-06T01:01:26.888Z,18.34
2018-06-06T01:03:55.516Z,18.18
2018-06-06T01:06:24.111Z,18.23
2018-06-06T01:08:52.702Z,18.17
2018-06-06T01:11:21.287Z,18.06
2018-06-06T01:13:49.884Z,18.00
2018-06-06T01:16:18.456Z,17.83
2018-06-06T01:18:47.003Z,17.65
2018-06-06T01:21:15.581Z,17.59
2018-06-06T01:23:44.151Z,17.69
2018-06-06T01:26:12.884Z,17.64
2018-06-06T01:31:08.960Z,17.72
2018-06-06T01:33:37.815Z,17.89
2018-06-06T01:36:06.504Z,17.95
2018-06-06T01:38:35.164Z,17.91
2018-06-06T01:41:03.809Z,17.80
2018-06-06T01:43:32.711Z,17.76
2018-06-06T01:46:01.241Z,17.70
2018-06-06T01:48:29.872Z,17.85
2018-06-06T01:50:58.428Z,17.80
2018-06-06T01:53:27.296Z,17.72
2018-06-06T01:55:55.837Z,17.52
2018-06-06T01:58:25.183Z,17.35
2018-06-06T02:00:53.747Z,17.42
2018-06-06T02:03:22.465Z,17.55
2018-06-06T02:05:51.023Z,17.51
2018-06-06T02:34:00.573Z,17.23
2018-06-06T02:36:29.191Z,17.38
2018-06-06T02:38:58.468Z,17.46
2018-06-06T02:41:27.120Z,17.34
2018-06-06T02:43:55.800Z,17.33
2018-06-06T02:46:26.648Z,17.20
2018-06-06T02:48:55.253Z,17.20
2018-06-06T02:51:23.820Z,17.07
2018-06-06T02:53:52.459Z,16.89
2018-06-06T02:56:21.051Z,16.72
2018-06-06T02:58:49.605Z,16.81
2018-06-06T03:01:18.264Z,16.63
2018-06-06T03:03:46.824Z,16.76
2018-06-06T03:06:15.544Z,16.83
2018-06-06T03:08:44.180Z,16.91
2018-06-06T03:11:12.752Z,16.89
2018-06-06T03:13:41.395Z,17.00
2018-06-06T03:16:09.965Z,16.89
2018-06-06T03:18:38.658Z,16.41
2018-06-06T03:21:10.872Z,16.37
2018-06-06T03:23:39.518Z,16.50
2018-06-06T03:26:08.295Z,16.46
2018-06-06T03:28:36.940Z,16.62
2018-06-06T03:31:06.427Z,16.50
2018-06-06T03:33:35.249Z,16.46
2018-06-06T03:36:03.963Z,16.64
2018-06-06T03:38:32.648Z,16.81
2018-06-06T03:41:01.221Z,16.92
2018-06-06T03:43:29.915Z,16.95
2018-06-06T03:45:58.480Z,17.05
2018-06-06T03:48:27.148Z,17.12
2018-06-06T03:50:55.724Z,16.92
2018-06-06T03:53:24.355Z,16.84
2018-06-06T03:55:53.469Z,16.80
2018-06-06T03:58:22.231Z,16.67
2018-06-06T04:00:50.984Z,16.53
2018-06-06T04:03:19.904Z,16.54
2018-06-06T04:05:48.622Z,16.60
2018-06-06T04:08:17.287Z,16.69
2018-06-06T04:10:45.973Z,16.67
2018-06-06T04:13:14.504Z,16.79
2018-06-06T04:15:43.272Z,16.85
2018-06-06T04:18:11.916Z,16.91
2018-06-06T04:20:40.549Z,16.98
2018-06-06T04:23:09.095Z,17.02
2018-06-06T04:25:37.772Z,17.20
2018-06-06T04:28:06.554Z,17.17
2018-06-06T04:30:35.252Z,17.23
2018-06-06T04:33:03.819Z,17.34
2018-06-06T04:35:32.420Z,17.33
2018-06-06T04:38:01.025Z,17.34
2018-06-06T04:40:29.716Z,17.36
2018-06-06T04:42:58.288Z,17.26
2018-06-06T04:45:27.764Z,17.23
2018-06-06T04:47:56.408Z,17.24
2018-06-06T04:50:25.063Z,17.31
2018-06-06T04:52:53.681Z,17.35
2018-06-06T04:55:22.245Z,17.39
2018-06-06T04:57:50.964Z,17.23
2018-06-06T05:00:19.596Z,17.27
2018-06-06T05:02:48.170Z,17.33
2018-06-06T05:05:16.913Z,17.47
2018-06-06T05:07:45.534Z,17.52
2018-06-06T05:10:14.089Z,17.55
2018-06-06T05:12:42.755Z,17.54
2018-06-06T05:15:11.455Z,17.66
2018-06-06T05:17:40.056Z,17.78
2018-06-06T05:20:08.610Z,17.91
2018-06-06T05:22:37.195Z,17.98
2018-06-06T05:25:06.009Z,17.96
2018-06-06T05:27:34.556Z,17.91
2018-06-06T05:30:03.410Z,18.05
2018-06-06T05:32:32.038Z,18.02
2018-06-06T05:35:00.856Z,18.06
2018-06-06T05:37:29.492Z,18.11
2018-06-06T05:39:58.072Z,18.22
2018-06-06T05:42:26.619Z,18.30
2018-06-06T05:44:55.268Z,18.30
2018-06-06T05:47:23.816Z,18.42
2018-06-06T05:49:52.420Z,18.43
2018-06-06T05:52:21.938Z,18.48
2018-06-06T05:54:50.892Z,18.49
2018-06-06T05:57:19.498Z,18.54
2018-06-06T05:59:48.323Z,18.67
2018-06-06T06:02:16.858Z,18.74
2018-06-06T06:04:45.725Z,18.79
2018-06-06T06:07:14.296Z,18.84
2018-06-06T06:09:42.927Z,18.84
2018-06-06T06:12:11.588Z,18.88
2018-06-06T06:14:40.244Z,18.92
2018-06-06T06:17:08.993Z,19.02
2018-06-06T06:19:38.128Z,19.18
2018-06-06T06:22:06.792Z,19.20
2018-06-06T06:24:35.495Z,19.23
2018-06-06T06:27:04.200Z,19.35
2018-06-06T06:29:32.744Z,19.42
2018-06-06T06:32:01.353Z,19.42
2018-06-06T06:34:29.944Z,19.53
2018-06-06T06:36:58.734Z,19.58
2018-06-06T06:39:27.364Z,19.63
2018-06-06T06:41:55.979Z,19.64
2018-06-06T06:44:24.515Z,19.67
2018-06-06T06:46:53.168Z,19.79
2018-06-06T06:49:21.757Z,19.85
2018-06-06T06:51:50.351Z,19.95
2018-06-06T06:54:18.953Z,19.98
2018-06-06T06:56:47.597Z,20.04
2018-06-06T06:59:16.209Z,20.13
2018-06-06T07:01:44.929Z,20.17
2018-06-06T07:04:13.549Z,20.27
2018-06-06T07:06:42.142Z,20.35
2018-06-06T07:09:10.849Z,20.43
2018-06-06T07:11:39.496Z,20.45
2018-06-06T07:14:08.685Z,20.54
2018-06-06T07:16:37.308Z,20.66
2018-06-06T07:19:05.971Z,20.62
2018-06-06T07:21:35.122Z,20.68
2018-06-06T07:24:05.491Z,20.73
2018-06-06T07:26:34.049Z,20.84
2018-06-06T07:29:02.647Z,20.93
2018-06-06T07:31:31.269Z,20.92
2018-06-06T07:33:59.849Z,21.06
2018-06-06T07:36:28.434Z,21.23
2018-06-06T07:38:57.262Z,21.36
2018-06-06T07:41:25.829Z,21.29
2018-06-06T07:43:54.441Z,21.36
2018-06-06T07:46:23.008Z,21.44
2018-06-06T07:48:51.953Z,21.54
2018-06-06T07:51:20.495Z,21.60
2018-06-06T07:53:49.296Z,21.65
2018-06-06T07:56:17.952Z,21.69
2018-06-06T07:58:46.492Z,21.68
2018-06-06T08:01:15.138Z,21.77
2018-06-06T08:03:43.816Z,21.80
2018-06-06T08:06:12.585Z,21.80
2018-06-06T08:08:41.388Z,21.85
2018-06-06T08:11:10.037Z,21.82
2018-06-06T08:13:38.641Z,21.87
2018-06-06T08:16:07.259Z,21.96
2018-06-06T08:18:35.859Z,22.08
2018-06-06T08:21:04.578Z,22.08
2018-06-06T08:23:33.264Z,21.96
2018-06-06T08:26:01.900Z,22.10
2018-06-06T08:28:30.488Z,22.09
2018-06-06T08:30:59.117Z,22.20
2018-06-06T08:33:27.760Z,22.29
2018-06-06T08:35:56.496Z,22.40
2018-06-06T08:38:25.148Z,22.49
2018-06-06T08:40:53.733Z,22.63
2018-06-06T08:43:22.324Z,22.80
2018-06-06T08:45:51.191Z,22.74
2018-06-06T08:48:19.824Z,22.88
2018-06-06T08:50:48.451Z,22.87
2018-06-06T08:53:17.148Z,22.96
2018-06-06T08:55:45.688Z,22.98
2018-06-06T08:58:14.298Z,23.04
2018-06-06T09:00:42.817Z,23.09
2018-06-06T09:03:11.520Z,23.04
2018-06-06T09:05:40.288Z,23.12
2018-06-06T09:08:09.037Z,23.20
2018-06-06T09:10:37.612Z,23.39
2018-06-06T09:13:06.297Z,23.45
2018-06-06T09:15:34.864Z,23.50
2018-06-06T09:18:03.829Z,23.66
2018-06-06T09:20:32.392Z,23.86
2018-06-06T09:23:01.008Z,24.02
2018-06-06T09:25:29.681Z,24.37
2018-06-06T09:27:58.287Z,24.46
2018-06-06T09:30:26.976Z,24.55
2018-06-06T09:32:55.542Z,24.44
2018-06-06T09:35:24.112Z,24.59
2018-06-06T09:37:53.025Z,24.77
2018-06-06T09:40:21.628Z,24.78
2018-06-06T09:42:50.328Z,25.03
2018-06-06T09:45:18.917Z,25.32
2018-06-06T09:47:47.468Z,25.37
2018-06-06T09:50:16.138Z,25.54
2018-06-06T09:52:44.775Z,25.71
2018-06-06T09:55:13.508Z,25.90
2018-06-06T09:57:42.364Z,26.03
2018-06-06T10:00:11.013Z,26.20
2018-06-06T10:02:39.679Z,26.23
2018-06-06T10:05:08.285Z,26.19
2018-06-06T10:07:36.844Z,26.18
2018-06-06T10:10:05.590Z,26.39
2018-06-06T10:12:34.236Z,26.24
2018-06-06T10:15:02.901Z,26.10
2018-06-06T10:17:31.588Z,26.13
2018-06-06T10:20:00.404Z,26.32
2018-06-06T10:22:29.063Z,26.55
2018-06-06T10:24:57.794Z,26.86
2018-06-06T10:27:26.363Z,27.01
2018-06-06T10:29:55.058Z,27.08
2018-06-06T10:32:23.705Z,27.11
2018-06-06T10:34:52.373Z,27.19
2018-06-06T10:37:21.049Z,27.30
2018-06-06T10:39:49.703Z,27.27
2018-06-06T10:42:18.397Z,27.50
2018-06-06T10:44:47.038Z,27.51
2018-06-06T10:47:16.101Z,27.35
2018-06-06T10:49:44.820Z,27.41
2018-06-06T10:52:13.627Z,27.40
2018-06-06T10:54:42.424Z,27.51
2018-06-06T10:57:11.140Z,27.55
2018-06-06T10:59:39.674Z,27.81
2018-06-06T11:02:08.296Z,27.93
2018-06-06T11:04:37.036Z,28.00
2018-06-06T11:07:05.797Z,28.16
2018-06-06T11:09:34.488Z,28.25
2018-06-06T11:12:03.080Z,28.25
2018-06-06T11:14:31.749Z,28.33
2018-06-06T11:17:00.387Z,28.16
2018-06-06T11:19:28.981Z,28.15
2018-06-06T11:21:57.653Z,28.20
2018-06-06T11:24:26.289Z,28.53
2018-06-06T11:26:54.948Z,28.64
2018-06-06T11:29:23.564Z,28.87
2018-06-06T11:31:52.101Z,29.24
2018-06-06T11:34:21.318Z,29.25
2018-06-06T11:36:49.883Z,29.44
2018-06-06T11:39:18.469Z,29.29
2018-06-06T11:41:47.053Z,29.32
2018-06-06T11:44:15.627Z,29.36
2018-06-06T11:46:44.177Z,29.30
2018-06-06T11:49:12.806Z,29.44
2018-06-06T11:51:41.612Z,29.53
2018-06-06T11:54:10.274Z,29.69
2018-06-06T11:56:38.951Z,29.70
2018-06-06T11:59:07.563Z,29.85
2018-06-06T12:01:36.386Z,29.68
2018-06-06T12:04:04.985Z,30.05
2018-06-06T12:06:33.681Z,30.11
2018-06-06T12:09:02.284Z,30.09
2018-06-06T12:11:30.978Z,29.34
2018-06-06T12:13:59.612Z,29.50
2018-06-06T12:16:28.373Z,29.67
2018-06-06T12:18:57.172Z,29.77
2018-06-06T12:21:25.871Z,30.13
2018-06-06T12:23:54.425Z,30.16
2018-06-06T12:26:23.013Z,30.22
2018-06-06T12:28:51.596Z,30.53
2018-06-06T12:31:20.227Z,30.57
2018-06-06T12:33:49.020Z,30.59
2018-06-06T12:36:17.866Z,30.87
2018-06-06T12:38:46.502Z,30.56
2018-06-06T12:41:15.065Z,30.69
2018-06-06T12:43:43.692Z,30.74
2018-06-06T12:46:12.290Z,30.97
2018-06-06T12:48:41.010Z,30.97
2018-06-06T12:51:09.665Z,31.04
2018-06-06T12:53:39.396Z,31.32
2018-06-06T12:56:07.990Z,31.39
2018-06-06T12:58:36.883Z,31.52
2018-06-06T13:01:05.456Z,32.11
2018-06-06T13:03:34.052Z,32.44
2018-06-06T13:06:02.930Z,32.51
2018-06-06T13:08:31.567Z,31.86
2018-06-06T13:11:00.143Z,31.86
2018-06-06T13:13:28.909Z,32.13
2018-06-06T13:15:57.583Z,32.21
2018-06-06T13:18:26.789Z,32.03
2018-06-06T13:20:55.572Z,32.34
2018-06-06T13:23:24.287Z,32.11
2018-06-06T13:25:52.899Z,32.39
2018-06-06T13:28:21.596Z,32.68
2018-06-06T13:30:50.179Z,32.81
2018-06-06T13:33:18.760Z,32.94
2018-06-06T13:35:47.403Z,33.00
2018-06-06T13:38:16.093Z,32.86
2018-06-06T13:40:44.985Z,32.94
2018-06-06T13:43:13.719Z,32.88
2018-06-06T13:45:42.489Z,32.82
2018-06-06T13:48:11.213Z,32.73
2018-06-06T13:50:39.851Z,32.99
2018-06-06T13:53:08.468Z,33.15
2018-06-06T13:55:37.223Z,33.06
2018-06-06T13:58:05.857Z,32.74
2018-06-06T14:00:34.646Z,32.30
2018-06-06T14:03:03.490Z,32.55
2018-06-06T14:05:32.621Z,32.59
2018-06-06T14:08:01.528Z,32.87
2018-06-06T14:10:30.279Z,32.74
2018-06-06T14:12:58.964Z,32.77
2018-06-06T14:15:28.561Z,32.53
2018-06-06T14:17:57.347Z,32.43
2018-06-06T14:20:26.188Z,32.94
2018-06-06T14:22:54.846Z,32.84
2018-06-06T14:25:23.684Z,33.25
2018-06-06T14:27:52.381Z,33.17
2018-06-06T14:30:20.980Z,33.10
2018-06-06T14:32:49.791Z,33.14
2018-06-06T14:35:18.618Z,33.27
2018-06-06T14:37:47.336Z,32.70
2018-06-06T14:40:16.102Z,32.79
2018-06-06T14:42:44.815Z,33.12
2018-06-06T14:45:13.548Z,33.24
2018-06-06T14:47:42.281Z,32.98
2018-06-06T14:50:10.815Z,33.03
2018-06-06T14:52:39.688Z,32.82
2018-06-06T14:55:08.289Z,33.06
2018-06-06T14:57:37.149Z,33.03
2018-06-06T15:00:06.011Z,33.53
2018-06-06T15:02:34.754Z,33.97
2018-06-06T15:05:03.420Z,34.31
2018-06-06T15:07:32.142Z,34.66
2018-06-06T15:10:00.846Z,34.66
2018-06-06T15:12:30.186Z,34.28
2018-06-06T15:14:58.891Z,33.56
2018-06-06T15:17:27.545Z,33.49
2018-06-06T15:19:56.290Z,33.60
2018-06-06T15:22:24.927Z,33.41
2018-06-06T15:24:53.717Z,33.97
2018-06-06T15:27:22.343Z,34.26
2018-06-06T15:29:51.032Z,34.67
2018-06-06T15:32:19.829Z,35.01
2018-06-06T15:34:48.578Z,34.75
2018-06-06T15:37:17.176Z,34.28
2018-06-06T15:39:45.865Z,34.43
2018-06-06T15:42:14.435Z,34.64
2018-06-06T15:44:43.158Z,34.76
2018-06-06T15:47:11.763Z,34.82
2018-06-06T15:49:41.273Z,34.59
2018-06-06T15:52:09.961Z,34.47
2018-06-06T15:54:38.567Z,34.54
2018-06-06T15:57:07.407Z,34.70
2018-06-06T15:59:35.926Z,34.60
2018-06-06T16:02:04.563Z,34.15
2018-06-06T16:04:33.173Z,34.24
2018-06-06T16:07:01.775Z,34.51
2018-06-06T16:09:31.444Z,34.40
2018-06-06T16:12:00.078Z,33.92
2018-06-06T16:14:28.748Z,34.04
2018-06-06T16:16:57.552Z,33.70
2018-06-06T16:19:26.129Z,34.09
2018-06-06T16:21:54.937Z,34.04
2018-06-06T16:24:23.580Z,33.88
2018-06-06T16:26:52.206Z,34.46
2018-06-06T16:29:20.809Z,34.72
2018-06-06T16:31:49.374Z,34.65
2018-06-06T16:34:18.028Z,33.38
2018-06-06T16:36:46.667Z,33.17
2018-06-06T16:39:15.416Z,33.32
2018-06-06T16:41:44.108Z,33.84
2018-06-06T16:44:13.101Z,33.90
2018-06-06T16:46:41.780Z,34.31
2018-06-06T16:49:10.369Z,34.39
2018-06-06T16:51:38.985Z,34.39
2018-06-06T16:54:07.529Z,34.57
2018-06-06T16:56:36.061Z,34.67
2018-06-06T16:59:04.744Z,34.34
2018-06-06T17:01:33.581Z,34.51
2018-06-06T17:04:02.168Z,34.88
2018-06-06T17:06:30.785Z,34.49
2018-06-06T17:08:59.364Z,34.60
2018-06-06T17:11:27.956Z,34.58
2018-06-06T17:13:56.677Z,34.07
2018-06-06T17:16:25.360Z,33.97
2018-06-06T17:18:54.037Z,33.67
2018-06-06T17:21:22.717Z,33.91
2018-06-06T17:23:51.288Z,33.88
2018-06-06T17:26:19.938Z,33.78
2018-06-06T17:28:48.527Z,33.44
2018-06-06T17:31:17.157Z,33.06
2018-06-06T17:33:45.858Z,32.83
2018-06-06T17:36:14.667Z,32.59
2018-06-06T17:38:43.277Z,32.54
2018-06-06T17:41:12.164Z,32.32
2018-06-06T17:43:40.849Z,31.97
2018-06-06T17:46:09.718Z,31.73
2018-06-06T17:48:38.301Z,31.79
2018-06-06T17:51:07.145Z,31.97
2018-06-06T17:53:36.053Z,32.00
2018-06-06T17:56:04.840Z,32.06
2018-06-06T17:58:33.522Z,32.06
2018-06-06T18:01:02.138Z,32.33
2018-06-06T18:03:31.673Z,32.23
2018-06-06T18:06:00.278Z,32.33
2018-06-06T18:08:29.243Z,32.20
2018-06-06T18:10:57.890Z,32.07
2018-06-06T18:13:26.535Z,31.93
2018-06-06T18:15:55.259Z,31.94
2018-06-06T18:18:23.934Z,31.92
2018-06-06T18:20:52.663Z,31.76
2018-06-06T18:23:21.560Z,31.73
2018-06-06T18:25:50.193Z,31.45
2018-06-06T18:28:18.948Z,31.40
2018-06-06T18:30:47.899Z,31.31
2018-06-06T18:33:16.529Z,31.11
2018-06-06T18:35:45.305Z,30.94
2018-06-06T18:38:13.996Z,30.82
2018-06-06T18:40:42.599Z,30.62
2018-06-06T18:43:11.384Z,30.41
2018-06-06T18:45:40.304Z,30.35
2018-06-06T18:48:09.007Z,30.21
2018-06-06T18:50:37.601Z,30.10
2018-06-06T18:53:06.195Z,29.84
2018-06-06T18:55:34.975Z,29.83
2018-06-06T18:58:03.839Z,29.69
2018-06-06T19:00:33.438Z,29.58
2018-06-06T19:03:01.974Z,29.72
2018-06-06T19:05:30.640Z,29.68
2018-06-06T19:07:59.473Z,29.52
2018-06-06T19:10:28.138Z,29.53
2018-06-06T19:12:56.908Z,29.41
2018-06-06T19:15:25.651Z,29.35
2018-06-06T19:17:54.348Z,29.18
2018-06-06T19:20:23.285Z,29.16
2018-06-06T19:22:51.932Z,29.20
2018-06-06T19:25:20.578Z,29.10
2018-06-06T19:27:49.184Z,28.81
2018-06-06T19:30:18.406Z,28.78
2018-06-06T19:32:47.018Z,28.59
2018-06-06T19:35:15.681Z,28.44
2018-06-06T19:37:44.325Z,28.40
2018-06-06T19:40:13.088Z,28.31
2018-06-06T19:42:41.769Z,28.24
2018-06-06T19:45:10.392Z,28.19
2018-06-06T19:47:38.984Z,28.22
2018-06-06T19:50:07.868Z,28.13
2018-06-06T19:52:36.512Z,28.08
2018-06-06T19:55:05.332Z,28.07
2018-06-06T19:57:33.995Z,27.97
2018-06-06T20:00:03.482Z,27.88
2018-06-06T20:02:32.303Z,27.80
2018-06-06T20:05:00.945Z,27.73
2018-06-06T20:07:29.841Z,27.67
2018-06-06T20:09:58.571Z,27.72
2018-06-06T20:12:27.183Z,27.61
2018-06-06T20:14:55.795Z,27.49
2018-06-06T20:17:24.442Z,27.45
2018-06-06T20:19:53.504Z,27.39
2018-06-06T20:22:22.161Z,27.30
2018-06-06T20:24:50.728Z,27.36
2018-06-06T20:27:19.374Z,27.35
2018-06-06T20:29:47.950Z,27.32
2018-06-06T20:32:16.565Z,27.28
2018-06-06T20:34:45.413Z,27.23
2018-06-06T20:37:14.230Z,27.12
2018-06-06T20:39:43.088Z,27.07
2018-06-06T20:42:11.769Z,26.97
2018-06-06T20:44:40.606Z,26.90
2018-06-06T20:47:09.235Z,26.83
2018-06-06T20:49:38.211Z,26.71
2018-06-06T20:52:06.854Z,26.69
2018-06-06T20:54:35.847Z,26.66
2018-06-06T20:57:04.664Z,26.59
2018-06-06T20:59:33.300Z,26.58
2018-06-06T21:02:02.027Z,26.53
2018-06-06T21:04:30.941Z,26.52
2018-06-06T21:06:59.565Z,26.53
2018-06-06T21:09:28.273Z,26.58
2018-06-06T21:11:56.829Z,26.57
2018-06-06T21:14:25.651Z,26.55
2018-06-06T21:16:54.373Z,26.46
2018-06-06T21:19:23.063Z,26.43
2018-06-06T21:21:51.669Z,26.42
2018-06-06T21:24:20.561Z,26.26
2018-06-06T21:26:49.180Z,26.16
2018-06-06T21:29:17.883Z,25.92
2018-06-06T21:31:48.757Z,26.00
2018-06-06T21:34:17.558Z,26.09
2018-06-06T21:36:46.308Z,26.09
2018-06-06T21:39:14.920Z,26.18
2018-06-06T21:41:43.755Z,26.20
2018-06-06T21:44:12.603Z,26.16
2018-06-06T21:46:41.310Z,26.16
2018-06-06T21:49:10.008Z,26.12
2018-06-06T21:51:38.628Z,26.10
2018-06-06T21:54:07.211Z,25.98
2018-06-06T21:56:35.936Z,25.99
2018-06-06T21:59:04.892Z,25.98
2018-06-06T22:01:33.701Z,25.99
2018-06-06T22:04:02.352Z,25.89
2018-06-06T22:06:31.027Z,25.87
2018-06-06T22:08:59.716Z,25.86
2018-06-06T22:11:28.285Z,25.84
2018-06-06T22:13:56.969Z,25.87
2018-06-06T22:16:25.612Z,25.91
2018-06-06T22:18:54.248Z,25.86
2018-06-06T22:21:22.937Z,25.81
2018-06-06T22:23:51.655Z,25.82
2018-06-06T22:26:21.135Z,25.70
2018-06-06T22:28:49.743Z,25.57
2018-06-06T22:31:18.376Z,25.55
2018-06-06T22:33:47.034Z,25.51
2018-06-06T22:36:15.772Z,25.51
2018-06-06T22:38:44.352Z,25.38
2018-06-06T22:41:13.492Z,25.14
2018-06-06T22:43:42.112Z,25.13
2018-06-06T22:46:10.701Z,25.14
2018-06-06T22:48:39.451Z,25.11
2018-06-06T22:51:08.133Z,25.15
2018-06-06T22:53:36.752Z,25.11
2018-06-06T22:56:05.815Z,25.17
2018-06-06T22:58:34.478Z,25.10
2018-06-06T23:01:03.362Z,25.10
2018-06-06T23:03:32.136Z,24.95
2018-06-06T23:06:00.732Z,25.00
2018-06-06T23:08:29.401Z,25.03
2018-06-06T23:10:57.980Z,25.06
2018-06-06T23:13:26.524Z,25.05
2018-06-06T23:15:55.173Z,24.98
2018-06-06T23:18:23.755Z,24.97
2018-06-06T23:20:52.645Z,24.80
2018-06-06T23:23:21.200Z,24.64
2018-06-06T23:25:49.965Z,24.53
2018-06-06T23:28:18.568Z,24.40
2018-06-06T23:30:47.297Z,24.25
2018-06-06T23:33:16.082Z,24.04
2018-06-06T23:35:44.962Z,24.11
2018-06-06T23:38:13.648Z,24.05
2018-06-06T23:40:42.247Z,24.14
2018-06-06T23:43:10.809Z,23.92
2018-06-06T23:45:39.408Z,23.81
2018-06-06T23:48:08.226Z,23.70
2018-06-06T23:50:36.935Z,23.67
2018-06-06T23:53:05.590Z,23.67
2018-06-06T23:55:34.317Z,23.51
2018-06-06T23:58:03.492Z,23.53
